METAR Data
IDs: Format: Raw Decoded Include TAF

Data at: 0327 UTC 23 Oct 2018

KTLH 230253Z 01004KT 10SM FEW050 BKN180 18/16 A3018 RMK AO2 SLP219 LAST T01780156 51006